FFT3220 KSLC-KDEN
Flight info
| Callsign | FFT3220 |
|---|---|
| Flight time | N/A |
| Altitude | 39000 |
| Route | RUGGD3 PERTY KAMPR LONGZ4 |
| Aircraft | A20N/M-SDE2E3FGHIRWXY/LB1 |
Departure
| Time | 2026-04-30 04:21 |
|---|---|
| Airport | Salt Lake City International Airport (KSLC) |
Arrival
| Time | N/A |
|---|---|
| Airport | Denver International Airport (KDEN) |
| Time | Latitude | Longitude | Altitude | Speed | Heading |
|---|---|---|---|---|---|
| 2026-04-30 04:08 | 40.78915 | -111.99180 | 4234 ft | 0 kts | 155° |
| 2026-04-30 04:14 | 40.78935 | -111.99193 | 4233 ft | 5 kts | 156° |
| 2026-04-30 04:14 | 40.78966 | -111.99210 | 4233 ft | 4 kts | 162° |
| 2026-04-30 04:14 | 40.78985 | -111.99214 | 4233 ft | 2 kts | 190° |
| 2026-04-30 04:14 | 40.78994 | -111.99207 | 4234 ft | 2 kts | 243° |
| 2026-04-30 04:15 | 40.78997 | -111.99194 | 4233 ft | 2 kts | 260° |
| 2026-04-30 04:15 | 40.78999 | -111.99180 | 4232 ft | 0 kts | 264° |
| 2026-04-30 04:16 | 40.78996 | -111.99218 | 4233 ft | 10 kts | 264° |
| 2026-04-30 04:17 | 40.79062 | -111.99292 | 4234 ft | 13 kts | 353° |
| 2026-04-30 04:17 | 40.79104 | -111.99365 | 4233 ft | 9 kts | 264° |
| 2026-04-30 04:17 | 40.79101 | -111.99403 | 4233 ft | 4 kts | 264° |
| 2026-04-30 04:17 | 40.79097 | -111.99455 | 4234 ft | 2 kts | 264° |
| 2026-04-30 04:18 | 40.79059 | -111.99508 | 4235 ft | 16 kts | 184° |
| 2026-04-30 04:18 | 40.78900 | -111.99493 | 4235 ft | 30 kts | 174° |
| 2026-04-30 04:18 | 40.78652 | -111.99462 | 4234 ft | 39 kts | 176° |
| 2026-04-30 04:18 | 40.78438 | -111.99436 | 4234 ft | 26 kts | 173° |
| 2026-04-30 04:19 | 40.78263 | -111.99418 | 4234 ft | 25 kts | 176° |
| 2026-04-30 04:19 | 40.78098 | -111.99411 | 4233 ft | 23 kts | 189° |
| 2026-04-30 04:19 | 40.77945 | -111.99436 | 4263 ft | 21 kts | 173° |
| 2026-04-30 04:19 | 40.77802 | -111.99420 | 4264 ft | 22 kts | 173° |
| 2026-04-30 04:20 | 40.77632 | -111.99407 | 4264 ft | 23 kts | 194° |
| 2026-04-30 04:20 | 40.77628 | -111.99552 | 4266 ft | 24 kts | 335° |
| 2026-04-30 04:20 | 40.77918 | -111.99594 | 4263 ft | 69 kts | 354° |
| 2026-04-30 04:20 | 40.78593 | -111.99671 | 4236 ft | 128 kts | 355° |
| 2026-04-30 04:21 | 40.79644 | -111.99799 | 4320 ft | 165 kts | 356° |
| 2026-04-30 04:21 | 40.80787 | -111.99972 | 4875 ft | 168 kts | 352° |
| 2026-04-30 04:21 | 40.81941 | -112.00220 | 5472 ft | 172 kts | 351° |
| 2026-04-30 04:21 | 40.83207 | -112.00499 | 5840 ft | 194 kts | 351° |
| 2026-04-30 04:22 | 40.84623 | -112.00808 | 6154 ft | 220 kts | 351° |
| 2026-04-30 04:22 | 40.86253 | -112.01164 | 6403 ft | 252 kts | 351° |
| 2026-04-30 04:22 | 40.88047 | -112.01556 | 6990 ft | 269 kts | 351° |
| 2026-04-30 04:22 | 40.89912 | -112.01958 | 7864 ft | 273 kts | 351° |
| 2026-04-30 04:23 | 40.91801 | -112.02354 | 8837 ft | 276 kts | 351° |
| 2026-04-30 04:23 | 40.93701 | -112.02742 | 9822 ft | 278 kts | 351° |
| 2026-04-30 04:23 | 40.95622 | -112.03130 | 10494 ft | 291 kts | 351° |
| 2026-04-30 04:23 | 40.97711 | -112.03547 | 10847 ft | 314 kts | 351° |
| 2026-04-30 04:24 | 40.99926 | -112.03990 | 11428 ft | 327 kts | 351° |
| 2026-04-30 04:24 | 41.02213 | -112.04272 | 12258 ft | 333 kts | 359° |
| 2026-04-30 04:24 | 41.04526 | -112.03861 | 13169 ft | 338 kts | 15° |
| 2026-04-30 04:24 | 41.06656 | -112.02480 | 14065 ft | 346 kts | 36° |
| 2026-04-30 04:25 | 41.08266 | -112.00085 | 14821 ft | 355 kts | 59° |
| 2026-04-30 04:25 | 41.09023 | -111.96943 | 15573 ft | 365 kts | 83° |
| 2026-04-30 04:25 | 41.08769 | -111.93583 | 16325 ft | 373 kts | 106° |
| 2026-04-30 04:25 | 41.07808 | -111.90355 | 17097 ft | 378 kts | 113° |
| 2026-04-30 04:26 | 41.06708 | -111.87167 | 17877 ft | 383 kts | 114° |
| 2026-04-30 04:26 | 41.05593 | -111.83937 | 18589 ft | 388 kts | 113° |
| 2026-04-30 04:26 | 41.04494 | -111.80700 | 19199 ft | 392 kts | 113° |
| 2026-04-30 04:26 | 41.03380 | -111.77376 | 19845 ft | 396 kts | 113° |
| 2026-04-30 04:27 | 41.02260 | -111.74009 | 20493 ft | 400 kts | 113° |
| 2026-04-30 04:27 | 41.01137 | -111.70623 | 21150 ft | 404 kts | 113° |
| 2026-04-30 04:27 | 41.00005 | -111.67200 | 21788 ft | 407 kts | 113° |
| 2026-04-30 04:27 | 40.98862 | -111.63750 | 22412 ft | 411 kts | 113° |
| 2026-04-30 04:28 | 40.97709 | -111.60266 | 23036 ft | 415 kts | 113° |
| 2026-04-30 04:28 | 40.96544 | -111.56757 | 23583 ft | 419 kts | 114° |
| 2026-04-30 04:28 | 40.95364 | -111.53215 | 24085 ft | 422 kts | 114° |
| 2026-04-30 04:28 | 40.94169 | -111.49634 | 24510 ft | 427 kts | 114° |
| 2026-04-30 04:29 | 40.92962 | -111.46026 | 24968 ft | 431 kts | 114° |
| 2026-04-30 04:29 | 40.91761 | -111.42386 | 25420 ft | 434 kts | 112° |
| 2026-04-30 04:29 | 40.90847 | -111.38616 | 25857 ft | 437 kts | 103° |
| 2026-04-30 04:29 | 40.90218 | -111.34669 | 26312 ft | 440 kts | 100° |
| 2026-04-30 04:30 | 40.89707 | -111.30663 | 26742 ft | 443 kts | 98° |
| 2026-04-30 04:30 | 40.89251 | -111.26618 | 27166 ft | 446 kts | 98° |
| 2026-04-30 04:30 | 40.88810 | -111.22547 | 27577 ft | 449 kts | 98° |
| 2026-04-30 04:30 | 40.88360 | -111.18437 | 27982 ft | 453 kts | 98° |
| 2026-04-30 04:31 | 40.87891 | -111.14304 | 28380 ft | 456 kts | 98° |
| 2026-04-30 04:31 | 40.87408 | -111.10154 | 28768 ft | 459 kts | 99° |
| 2026-04-30 04:31 | 40.86912 | -111.05959 | 29146 ft | 463 kts | 99° |
| 2026-04-30 04:31 | 40.86415 | -111.01804 | 29508 ft | 466 kts | 99° |
| 2026-04-30 04:32 | 40.85904 | -110.97571 | 29887 ft | 469 kts | 99° |
| 2026-04-30 04:32 | 40.85388 | -110.93309 | 30236 ft | 471 kts | 99° |
| 2026-04-30 04:32 | 40.84865 | -110.89012 | 30534 ft | 474 kts | 99° |
| 2026-04-30 04:32 | 40.84340 | -110.84704 | 30842 ft | 476 kts | 99° |
| 2026-04-30 04:33 | 40.83812 | -110.80386 | 31249 ft | 476 kts | 99° |
| 2026-04-30 04:33 | 40.83282 | -110.76061 | 31628 ft | 476 kts | 99° |
| 2026-04-30 04:33 | 40.82751 | -110.71740 | 32001 ft | 477 kts | 99° |
| 2026-04-30 04:33 | 40.82219 | -110.67426 | 32382 ft | 477 kts | 99° |
| 2026-04-30 04:34 | 40.81683 | -110.63099 | 32762 ft | 476 kts | 99° |
| 2026-04-30 04:34 | 40.81149 | -110.58793 | 33103 ft | 477 kts | 100° |
| 2026-04-30 04:34 | 40.80611 | -110.54466 | 33478 ft | 476 kts | 100° |
| 2026-04-30 04:34 | 40.80072 | -110.50150 | 33841 ft | 476 kts | 100° |
| 2026-04-30 04:35 | 40.79537 | -110.45885 | 34163 ft | 476 kts | 100° |
| 2026-04-30 04:35 | 40.78995 | -110.41569 | 34449 ft | 476 kts | 100° |
| 2026-04-30 04:35 | 40.78450 | -110.37250 | 34709 ft | 477 kts | 100° |
| 2026-04-30 04:35 | 40.77904 | -110.32934 | 34902 ft | 477 kts | 100° |
| 2026-04-30 04:36 | 40.77355 | -110.28606 | 35123 ft | 478 kts | 100° |
| 2026-04-30 04:36 | 40.76804 | -110.24277 | 35356 ft | 479 kts | 100° |
| 2026-04-30 04:36 | 40.76251 | -110.19941 | 35586 ft | 479 kts | 101° |
| 2026-04-30 04:36 | 40.75695 | -110.15602 | 35840 ft | 480 kts | 101° |
| 2026-04-30 04:37 | 40.75136 | -110.11255 | 36058 ft | 480 kts | 101° |
| 2026-04-30 04:37 | 40.74576 | -110.06907 | 36249 ft | 481 kts | 101° |
| 2026-04-30 04:37 | 40.74126 | -110.02532 | 36437 ft | 483 kts | 96° |
| 2026-04-30 04:37 | 40.73823 | -109.98155 | 36642 ft | 484 kts | 96° |
| 2026-04-30 04:38 | 40.73542 | -109.93738 | 36892 ft | 484 kts | 95° |
| 2026-04-30 04:38 | 40.73257 | -109.89310 | 37073 ft | 484 kts | 96° |
| 2026-04-30 04:38 | 40.72966 | -109.84883 | 37284 ft | 485 kts | 96° |
| 2026-04-30 04:38 | 40.72670 | -109.80447 | 37478 ft | 485 kts | 96° |
| 2026-04-30 04:39 | 40.72370 | -109.76015 | 37644 ft | 486 kts | 96° |
| 2026-04-30 04:39 | 40.72067 | -109.71569 | 37774 ft | 487 kts | 96° |
| 2026-04-30 04:39 | 40.71761 | -109.67118 | 37968 ft | 487 kts | 96° |
| 2026-04-30 04:39 | 40.71453 | -109.62661 | 38147 ft | 488 kts | 96° |
| 2026-04-30 04:40 | 40.71147 | -109.58268 | 38296 ft | 488 kts | 96° |
| 2026-04-30 04:40 | 40.70518 | -109.49314 | 38466 ft | 492 kts | 96° |
| 2026-04-30 04:40 | 40.70200 | -109.44826 | 38668 ft | 492 kts | 96° |
| 2026-04-30 04:41 | 40.69988 | -109.41844 | 38714 ft | 494 kts | 96° |
| 2026-04-30 04:41 | 40.69672 | -109.37422 | 38223 ft | 492 kts | 96° |
| 2026-04-30 04:41 | 40.69354 | -109.32990 | 39268 ft | 483 kts | 96° |
| 2026-04-30 04:42 | 40.68610 | -109.22654 | 39128 ft | 490 kts | 96° |
| 2026-04-30 04:42 | 40.68097 | -109.15222 | 39110 ft | 481 kts | 96° |
| 2026-04-30 04:43 | 40.67472 | -109.06548 | 39099 ft | 470 kts | 96° |
| 2026-04-30 04:43 | 40.67161 | -109.02335 | 39063 ft | 464 kts | 107° |
| 2026-04-30 04:43 | 40.65622 | -108.98940 | 37734 ft | 422 kts | 163° |
| 2026-04-30 04:43 | 40.62937 | -108.98033 | 35143 ft | 405 kts | 195° |
| 2026-04-30 04:44 | 40.60526 | -108.99086 | 30389 ft | 293 kts | 175° |
| 2026-04-30 04:44 | 40.59012 | -108.99542 | 22701 ft | 191 kts | 182° |
| 2026-04-30 04:44 | 40.58369 | -108.99725 | 13015 ft | 34 kts | 95° |
| 2026-04-30 04:44 | 40.58887 | -109.00286 | 9862 ft | 335 kts | 340° |